Time;durP1;ratioP1;P1;durP2;ratioP2;P2;SDS_P1;SDS_P2;PMS_P1;PMS_P2;Temp;Humidity;BMP_temperature;BMP_pressure;BME280_temperature;BME280_humidity;BME280_pressure;Samples;Min_cycle;Max_cycle;Signal;HPM_P1;HPM_P2
2021/12/11 00:01:53;;;;;;;;;;;6.50;69.30;;;;;;5016380;28;19980;-63
2021/12/11 00:04:22;;;;;;;;;;;6.50;68.90;;;;;;5016478;28;19905;-62
2021/12/11 00:06:49;;;;;;;;;;;6.50;68.80;;;;;;5016372;28;19959;-62
2021/12/11 00:09:18;;;;;;;;;;;6.60;68.60;;;;;;5016112;28;20284;-63
2021/12/11 00:11:45;;;;;;;;;;;6.60;68.30;;;;;;5016260;28;20032;-62
2021/12/11 00:14:12;;;;;;;;;;;6.60;68.30;;;;;;5016342;28;20384;-60
2021/12/11 00:16:39;;;;;;;;;;;6.60;68.20;;;;;;5016204;28;19909;-60
2021/12/11 00:19:11;;;;;;;;;;;6.60;67.90;;;;;;5016220;28;20014;-60
2021/12/11 00:21:37;;;;;;;;;;;6.60;67.70;;;;;;5015919;28;19909;-61
2021/12/11 00:24:11;;;;;;;;;;;6.60;67.60;;;;;;5016186;28;19912;-61
2021/12/11 00:26:38;;;;;;;;;;;6.60;67.40;;;;;;5015886;28;19905;-61
2021/12/11 00:29:06;;;;;;;;;;;6.70;67.10;;;;;;5016108;28;20388;-60
2021/12/11 00:31:31;;;;;;;;;;;6.70;67.20;;;;;;4998270;28;19906;-60
2021/12/11 00:33:57;;;;;;;;;;;6.60;67.30;;;;;;5015842;28;19905;-61
2021/12/11 00:36:24;;;;;;;;;;;6.60;67.40;;;;;;5015971;28;19967;-61
2021/12/11 00:38:50;;;;;;;;;;;6.60;67.10;;;;;;5015863;28;20017;-60
2021/12/11 00:41:20;;;;;;;;;;;6.60;67.00;;;;;;5015804;28;19910;-61
2021/12/11 00:43:46;;;;;;;;;;;6.60;67.10;;;;;;4997974;28;19909;-61
2021/12/11 00:46:17;;;;;;;;;;;6.70;67.30;;;;;;5015437;28;19912;-61
2021/12/11 00:48:42;;;;;;;;;;;6.70;67.90;;;;;;4998099;28;20384;-61
2021/12/11 00:51:11;;;;;;;;;;;6.60;68.00;;;;;;4997834;28;19913;-62
2021/12/11 00:53:42;;;;;;;;;;;6.70;66.50;;;;;;5015618;28;19940;-61
2021/12/11 00:56:16;;;;;;;;;;;6.80;66.00;;;;;;5015482;28;19905;-61
2021/12/11 00:58:42;;;;;;;;;;;6.80;65.70;;;;;;5015553;28;20272;-61
2021/12/11 01:01:08;;;;;;;;;;;6.90;65.30;;;;;;5014799;28;20326;-60
2021/12/11 01:03:45;;;;;;;;;;;6.80;66.30;;;;;;5015280;28;19970;-61
2021/12/11 01:06:22;;;;;;;;;;;6.80;66.40;;;;;;5015233;28;19905;-61
2021/12/11 01:08:54;;;;;;;;;;;6.70;66.40;;;;;;5015673;28;20357;-62
2021/12/11 01:11:22;;;;;;;;;;;6.60;66.50;;;;;;5014984;28;19924;-63
2021/12/11 01:14:08;;;;;;;;;;;6.50;67.10;;;;;;5015426;28;19913;-63
2021/12/11 01:16:35;;;;;;;;;;;6.50;66.60;;;;;;5015338;28;19913;-61
2021/12/11 01:19:02;;;;;;;;;;;6.50;67.60;;;;;;5015371;28;19913;-61
2021/12/11 01:21:57;;;;;;;;;;;6.50;66.90;;;;;;5014764;28;20036;-61
2021/12/11 01:24:41;;;;;;;;;;;6.50;66.70;;;;;;5014165;28;19906;-61
2021/12/11 01:27:07;;;;;;;;;;;6.40;67.10;;;;;;5014807;28;20012;-61
2021/12/11 01:29:33;;;;;;;;;;;6.30;67.00;;;;;;5014721;28;20011;-62
2021/12/11 01:31:59;;;;;;;;;;;6.40;66.60;;;;;;5014795;28;19912;-62
2021/12/11 01:34:25;;;;;;;;;;;6.30;67.20;;;;;;5014776;28;19909;-63
2021/12/11 01:36:51;;;;;;;;;;;6.30;67.10;;;;;;5014690;28;19912;-61
2021/12/11 01:39:18;;;;;;;;;;;6.30;66.90;;;;;;5014757;28;19963;-61
2021/12/11 01:41:45;;;;;;;;;;;6.20;67.00;;;;;;5014571;28;19928;-61
2021/12/11 01:44:12;;;;;;;;;;;6.20;67.40;;;;;;5014610;28;20353;-62
2021/12/11 01:46:38;;;;;;;;;;;6.10;67.90;;;;;;5014537;28;19912;-61
2021/12/11 01:49:06;;;;;;;;;;;6.20;67.70;;;;;;5014188;28;19916;-61
2021/12/11 01:51:35;;;;;;;;;;;6.20;67.20;;;;;;5014291;28;19905;-63
2021/12/11 01:54:04;;;;;;;;;;;6.10;67.30;;;;;;5014317;28;19912;-61
2021/12/11 01:56:32;;;;;;;;;;;6.10;67.20;;;;;;5014458;28;19905;-61
2021/12/11 01:59:00;;;;;;;;;;;6.00;67.40;;;;;;5014511;28;20000;-61
2021/12/11 02:01:31;;;;;;;;;;;6.00;67.60;;;;;;5013955;28;19920;-61
2021/12/11 02:03:59;;;;;;;;;;;6.00;67.80;;;;;;4996788;28;19909;-63
2021/12/11 02:06:28;;;;;;;;;;;6.20;67.50;;;;;;5013942;28;19906;-63
2021/12/11 02:08:55;;;;;;;;;;;6.10;67.30;;;;;;5014135;28;20349;-62
2021/12/11 02:11:22;;;;;;;;;;;6.10;67.50;;;;;;5013131;28;19909;-63
2021/12/11 02:13:52;;;;;;;;;;;6.10;67.50;;;;;;5013946;28;19905;-62
2021/12/11 02:16:38;;;;;;;;;;;6.10;67.20;;;;;;5014189;28;19905;-62
2021/12/11 02:19:08;;;;;;;;;;;5.90;68.20;;;;;;5014069;28;19916;-61
2021/12/11 02:21:36;;;;;;;;;;;5.60;68.50;;;;;;5013677;28;19944;-62
2021/12/11 02:24:07;;;;;;;;;;;5.60;69.60;;;;;;5013876;28;19905;-62
2021/12/11 02:26:34;;;;;;;;;;;5.50;68.90;;;;;;5013653;28;20266;-61
2021/12/11 02:29:04;;;;;;;;;;;5.40;69.30;;;;;;5013905;28;19913;-61
2021/12/11 02:31:29;;;;;;;;;;;5.30;69.80;;;;;;5014083;28;20339;-61
2021/12/11 02:34:09;;;;;;;;;;;5.20;70.00;;;;;;5013628;28;20000;-61
2021/12/11 02:36:41;;;;;;;;;;;5.40;69.80;;;;;;5013865;28;19952;-60
2021/12/11 02:39:11;;;;;;;;;;;5.40;68.50;;;;;;5013762;28;20280;-61
2021/12/11 02:41:55;;;;;;;;;;;5.40;68.00;;;;;;5013547;28;19912;-62
2021/12/11 02:44:43;;;;;;;;;;;5.50;67.70;;;;;;5013705;28;19953;-60
2021/12/11 02:47:09;;;;;;;;;;;5.50;66.80;;;;;;4982916;28;20273;-61
2021/12/11 02:49:38;;;;;;;;;;;5.60;66.70;;;;;;5013339;28;19918;-61
2021/12/11 02:52:04;;;;;;;;;;;5.70;65.50;;;;;;5013296;28;19905;-63
2021/12/11 02:54:37;;;;;;;;;;;5.60;65.10;;;;;;5013489;28;20262;-62
2021/12/11 02:57:05;;;;;;;;;;;5.60;64.70;;;;;;5013570;28;20353;-62
2021/12/11 02:59:37;;;;;;;;;;;5.60;64.50;;;;;;5013590;28;19905;-62
2021/12/11 03:02:08;;;;;;;;;;;5.60;63.90;;;;;;5013162;28;19917;-63
2021/12/11 03:04:36;;;;;;;;;;;5.60;64.20;;;;;;5013686;28;19905;-63
2021/12/11 03:07:05;;;;;;;;;;;5.40;65.30;;;;;;5013657;28;19912;-63
2021/12/11 03:09:32;;;;;;;;;;;5.30;65.80;;;;;;5013416;28;19914;-63
2021/12/11 03:11:59;;;;;;;;;;;5.30;65.40;;;;;;5013264;28;19960;-63
2021/12/11 03:14:25;;;;;;;;;;;5.40;65.30;;;;;;5013162;28;19931;-62
2021/12/11 03:16:52;;;;;;;;;;;5.40;65.20;;;;;;5013561;28;19996;-62
2021/12/11 03:19:20;;;;;;;;;;;5.30;65.50;;;;;;5013586;28;20385;-62
2021/12/11 03:21:46;;;;;;;;;;;5.30;65.80;;;;;;5013254;28;20337;-62
2021/12/11 03:24:12;;;;;;;;;;;5.30;65.80;;;;;;5016176;28;19928;-62
2021/12/11 03:26:39;;;;;;;;;;;5.30;65.90;;;;;;5017096;28;19952;-64
2021/12/11 03:29:06;;;;;;;;;;;5.20;66.70;;;;;;5016880;28;19905;-61
2021/12/11 03:31:36;;;;;;;;;;;5.10;66.80;;;;;;5016986;28;20258;-63
2021/12/11 03:34:02;;;;;;;;;;;5.20;66.80;;;;;;5016969;28;20349;-62
2021/12/11 03:36:30;;;;;;;;;;;5.10;67.20;;;;;;5016962;28;19912;-61
2021/12/11 03:38:58;;;;;;;;;;;5.00;67.80;;;;;;5016717;28;19913;-61
2021/12/11 03:41:26;;;;;;;;;;;5.00;68.20;;;;;;5016807;28;19905;-63
2021/12/11 03:43:52;;;;;;;;;;;5.10;68.00;;;;;;5016777;28;19912;-62
2021/12/11 03:46:18;;;;;;;;;;;5.10;68.10;;;;;;5016849;28;19996;-62
2021/12/11 03:48:47;;;;;;;;;;;4.90;68.90;;;;;;5016753;28;20376;-64
2021/12/11 03:51:15;;;;;;;;;;;5.00;68.90;;;;;;5016537;28;19956;-63
2021/12/11 03:53:41;;;;;;;;;;;4.80;69.50;;;;;;5016778;28;19912;-62
2021/12/11 03:56:07;;;;;;;;;;;4.80;69.70;;;;;;5016270;28;19909;-61
2021/12/11 03:58:34;;;;;;;;;;;4.90;69.50;;;;;;5016597;28;20353;-61
2021/12/11 04:01:02;;;;;;;;;;;4.90;69.40;;;;;;5016593;28;19912;-63
2021/12/11 04:03:30;;;;;;;;;;;4.90;69.40;;;;;;5016025;28;19949;-61
2021/12/11 04:05:56;;;;;;;;;;;5.00;69.20;;;;;;5016767;28;19905;-63
2021/12/11 04:08:24;;;;;;;;;;;4.90;69.40;;;;;;5016285;28;19920;-62
2021/12/11 04:10:49;;;;;;;;;;;4.80;69.70;;;;;;5016387;28;19922;-61
2021/12/11 04:13:15;;;;;;;;;;;4.90;70.20;;;;;;5016178;28;20276;-62
2021/12/11 04:15:42;;;;;;;;;;;4.80;69.70;;;;;;5016226;28;20288;-62
2021/12/11 04:18:08;;;;;;;;;;;4.70;69.70;;;;;;5016119;28;19905;-61
2021/12/11 04:20:37;;;;;;;;;;;4.80;69.70;;;;;;5015953;28;19906;-60
2021/12/11 04:23:03;;;;;;;;;;;4.80;69.30;;;;;;5015907;28;19928;-61
2021/12/11 04:25:29;;;;;;;;;;;4.80;69.20;;;;;;5016189;28;20004;-62
2021/12/11 04:27:55;;;;;;;;;;;4.70;69.10;;;;;;5016008;28;20015;-61
2021/12/11 04:30:22;;;;;;;;;;;4.80;68.40;;;;;;5015861;28;19917;-61
2021/12/11 04:32:48;;;;;;;;;;;4.90;68.10;;;;;;5015608;28;19905;-61
2021/12/11 04:35:15;;;;;;;;;;;4.80;68.10;;;;;;5014985;28;19944;-61
2021/12/11 04:37:41;;;;;;;;;;;4.80;68.20;;;;;;5015743;28;19968;-61
2021/12/11 04:40:18;;;;;;;;;;;4.80;67.70;;;;;;5015631;28;19944;-61
2021/12/11 04:45:19;;;;;;;;;;;4.70;67.90;;;;;;5015772;28;19913;-63
2021/12/11 04:47:52;;;;;;;;;;;4.80;67.50;;;;;;5015818;28;19905;-61
2021/12/11 04:50:25;;;;;;;;;;;4.80;66.70;;;;;;5015313;28;19924;-61
2021/12/11 04:52:55;;;;;;;;;;;4.80;66.70;;;;;;5015500;28;20000;-63
2021/12/11 05:13:21;;;;;;;;;;;5.20;63.00;;;;;;5015236;28;19905;-61
2021/12/11 05:15:48;;;;;;;;;;;5.20;63.00;;;;;;5015062;28;19916;-61
2021/12/11 05:18:15;;;;;;;;;;;5.30;62.30;;;;;;5015258;28;19906;-61
2021/12/11 05:20:43;;;;;;;;;;;5.30;62.10;;;;;;5014778;28;19906;-62
2021/12/11 05:23:08;;;;;;;;;;;5.40;61.50;;;;;;5015290;28;20269;-61
2021/12/11 05:25:34;;;;;;;;;;;5.40;60.60;;;;;;5014726;28;19905;-62
2021/12/11 05:28:00;;;;;;;;;;;5.50;60.30;;;;;;5014840;28;19940;-62
2021/12/11 05:30:30;;;;;;;;;;;5.50;59.80;;;;;;5015610;28;19921;-61
2021/12/11 05:32:58;;;;;;;;;;;5.50;59.70;;;;;;4997588;28;20277;-62
2021/12/11 05:35:25;;;;;;;;;;;5.60;59.60;;;;;;5015196;28;19905;-61
2021/12/11 05:37:50;;;;;;;;;;;5.60;59.40;;;;;;5014964;28;19928;-62
2021/12/11 05:40:18;;;;;;;;;;;5.60;59.80;;;;;;5014896;28;20364;-61
2021/12/11 05:42:45;;;;;;;;;;;5.60;59.30;;;;;;5014561;28;20356;-61
2021/12/11 05:45:11;;;;;;;;;;;5.60;59.50;;;;;;5014665;28;19905;-62
2021/12/11 05:47:37;;;;;;;;;;;5.50;60.00;;;;;;5014645;28;19916;-63
2021/12/11 05:50:04;;;;;;;;;;;5.40;60.60;;;;;;5014578;28;19914;-62
2021/12/11 05:52:29;;;;;;;;;;;5.30;61.20;;;;;;5014461;28;19905;-62
2021/12/11 05:54:55;;;;;;;;;;;5.40;61.20;;;;;;5014588;28;19973;-62
2021/12/11 05:57:21;;;;;;;;;;;5.40;61.10;;;;;;5014460;28;19997;-63
2021/12/11 05:59:48;;;;;;;;;;;5.40;61.20;;;;;;5014469;28;19906;-62
2021/12/11 06:02:17;;;;;;;;;;;5.40;61.10;;;;;;5013951;28;19924;-63
2021/12/11 06:04:44;;;;;;;;;;;5.40;60.90;;;;;;5014580;28;20289;-61
2021/12/11 06:07:10;;;;;;;;;;;5.40;60.90;;;;;;5014510;28;19952;-62
2021/12/11 06:09:37;;;;;;;;;;;5.40;61.00;;;;;;5014110;28;19914;-62
2021/12/11 06:12:07;;;;;;;;;;;5.40;60.00;;;;;;5014267;28;19906;-61
2021/12/11 06:14:33;;;;;;;;;;;5.50;59.80;;;;;;5014220;28;19996;-64
2021/12/11 06:17:00;;;;;;;;;;;5.60;59.60;;;;;;5014370;28;19906;-62
2021/12/11 06:19:27;;;;;;;;;;;5.60;59.20;;;;;;5014198;28;20276;-64
2021/12/11 06:21:54;;;;;;;;;;;5.60;59.60;;;;;;5014085;28;19909;-63
2021/12/11 06:24:20;;;;;;;;;;;5.80;59.90;;;;;;5013947;28;20456;-66
2021/12/11 06:26:46;;;;;;;;;;;6.30;61.40;;;;;;5013959;28;19909;-60
2021/12/11 06:29:11;;;;;;;;;;;6.60;59.70;;;;;;5013918;28;19913;-62
2021/12/11 06:31:37;;;;;;;;;;;6.50;57.10;;;;;;5013917;28;19905;-62
2021/12/11 06:34:04;;;;;;;;;;;6.60;57.10;;;;;;5013792;28;19952;-64
2021/12/11 06:36:29;;;;;;;;;;;6.80;58.30;;;;;;4996068;28;19905;-64
2021/12/11 06:38:58;;;;;;;;;;;7.00;57.40;;;;;;5013705;28;19905;-65
2021/12/11 06:41:26;;;;;;;;;;;7.20;55.50;;;;;;4996480;28;20401;-65
2021/12/11 06:43:53;;;;;;;;;;;7.20;54.30;;;;;;5013829;28;19906;-67
2021/12/11 06:46:18;;;;;;;;;;;7.00;54.40;;;;;;5013377;28;19952;-65
2021/12/11 06:48:44;;;;;;;;;;;6.60;54.70;;;;;;5013259;28;19913;-65
2021/12/11 06:51:09;;;;;;;;;;;6.20;55.70;;;;;;5010063;28;19960;-65
2021/12/11 06:53:44;;;;;;;;;;;6.20;56.10;;;;;;5007940;28;19909;-61
2021/12/11 06:56:11;;;;;;;;;;;6.10;56.50;;;;;;4993010;28;20560;-62
2021/12/11 06:58:37;;;;;;;;;;;6.00;56.90;;;;;;5014615;28;19988;-63
2021/12/11 07:01:04;;;;;;;;;;;6.20;56.70;;;;;;5021139;28;19905;-61
2021/12/11 07:03:29;;;;;;;;;;;6.10;56.30;;;;;;5018069;28;19917;-63
2021/12/11 07:05:55;;;;;;;;;;;6.10;56.60;;;;;;5016309;28;20008;-61
2021/12/11 07:08:23;;;;;;;;;;;6.10;56.80;;;;;;5015631;28;19936;-66
2021/12/11 07:10:48;;;;;;;;;;;6.10;57.00;;;;;;5014650;28;19940;-65
2021/12/11 07:13:15;;;;;;;;;;;6.20;56.00;;;;;;5016243;28;20357;-62
2021/12/11 07:15:41;;;;;;;;;;;6.30;55.70;;;;;;5001344;28;19952;-62
2021/12/11 07:18:07;;;;;;;;;;;6.30;55.50;;;;;;5016301;28;19944;-63
2021/12/11 07:20:32;;;;;;;;;;;6.30;55.70;;;;;;5016312;28;19955;-60
2021/12/11 07:22:58;;;;;;;;;;;6.30;56.00;;;;;;5016790;28;19905;-62
2021/12/11 07:25:29;;;;;;;;;;;6.10;56.40;;;;;;5019787;28;19909;-64
2021/12/11 07:27:56;;;;;;;;;;;6.10;56.50;;;;;;5019715;28;19912;-62
2021/12/11 07:30:23;;;;;;;;;;;6.20;56.70;;;;;;5019619;28;20012;-62
2021/12/11 07:32:51;;;;;;;;;;;6.20;55.70;;;;;;5016686;28;20282;-63
2021/12/11 07:35:16;;;;;;;;;;;6.20;56.20;;;;;;5018411;28;20012;-61
2021/12/11 07:37:48;;;;;;;;;;;6.20;56.10;;;;;;5016208;28;19999;-61
2021/12/11 07:40:14;;;;;;;;;;;6.20;56.30;;;;;;5018480;28;19916;-61
2021/12/11 07:42:40;;;;;;;;;;;6.10;56.60;;;;;;5003898;28;20350;-63
2021/12/11 07:45:06;;;;;;;;;;;6.20;56.00;;;;;;4998832;28;20013;-63
2021/12/11 07:47:31;;;;;;;;;;;6.30;56.30;;;;;;4999727;28;19928;-63
2021/12/11 07:49:57;;;;;;;;;;;6.30;56.20;;;;;;4999793;28;20358;-64
2021/12/11 07:52:23;;;;;;;;;;;6.30;56.00;;;;;;4999838;28;19912;-64
2021/12/11 07:54:48;;;;;;;;;;;6.30;56.60;;;;;;4999661;28;19937;-65
2021/12/11 07:57:14;;;;;;;;;;;6.30;56.60;;;;;;4999928;28;19906;-65
2021/12/11 07:59:39;;;;;;;;;;;6.10;57.30;;;;;;5005765;28;19940;-62
2021/12/11 08:02:05;;;;;;;;;;;6.10;57.10;;;;;;5019217;28;20016;-61
2021/12/11 08:04:31;;;;;;;;;;;6.10;57.20;;;;;;5019214;28;19913;-66
2021/12/11 08:06:56;;;;;;;;;;;6.10;57.30;;;;;;5019622;28;19913;-62
2021/12/11 08:09:24;;;;;;;;;;;6.10;57.60;;;;;;5018036;28;20414;-62
2021/12/11 08:11:50;;;;;;;;;;;6.10;57.40;;;;;;5014404;28;19963;-65
2021/12/11 08:14:16;;;;;;;;;;;6.10;57.90;;;;;;4983488;28;19917;-63
2021/12/11 08:16:46;;;;;;;;;;;6.20;58.20;;;;;;4984463;28;19906;-65
2021/12/11 08:19:14;;;;;;;;;;;6.10;58.00;;;;;;4982259;28;19910;-65
2021/12/11 08:21:40;;;;;;;;;;;6.10;58.30;;;;;;4983774;28;19906;-64
2021/12/11 08:24:07;;;;;;;;;;;6.00;58.60;;;;;;4982663;28;19922;-63
2021/12/11 08:26:33;;;;;;;;;;;6.00;58.90;;;;;;4978502;28;19946;-63
2021/12/11 08:28:59;;;;;;;;;;;5.90;58.80;;;;;;4982980;28;20200;-62
2021/12/11 08:31:25;;;;;;;;;;;6.00;58.80;;;;;;4982580;28;19942;-60
2021/12/11 08:33:51;;;;;;;;;;;6.00;58.60;;;;;;4983839;28;20251;-63
2021/12/11 08:36:16;;;;;;;;;;;6.10;58.80;;;;;;4986687;28;19922;-63
2021/12/11 08:38:42;;;;;;;;;;;6.00;58.80;;;;;;4982163;28;19906;-62
2021/12/11 08:41:08;;;;;;;;;;;6.00;58.70;;;;;;4985822;28;19997;-62
2021/12/11 08:43:34;;;;;;;;;;;6.00;58.60;;;;;;4983327;28;19928;-61
2021/12/11 08:46:15;;;;;;;;;;;6.00;58.80;;;;;;4987057;28;20410;-62
2021/12/11 08:48:45;;;;;;;;;;;6.00;58.90;;;;;;4981159;28;19970;-61
2021/12/11 08:51:16;;;;;;;;;;;6.10;58.70;;;;;;4988806;28;19983;-60
2021/12/11 08:53:42;;;;;;;;;;;6.00;58.70;;;;;;4985549;28;20008;-62
2021/12/11 08:56:09;;;;;;;;;;;6.00;58.70;;;;;;4989271;28;20070;-60
2021/12/11 08:58:35;;;;;;;;;;;6.00;58.70;;;;;;4965531;28;19917;-61
2021/12/11 09:01:06;;;;;;;;;;;6.10;58.70;;;;;;4982510;28;19982;-61
2021/12/11 09:03:51;;;;;;;;;;;6.10;58.70;;;;;;4982554;28;19972;-60
2021/12/11 09:06:20;;;;;;;;;;;6.10;58.80;;;;;;4976034;28;20000;-61
2021/12/11 09:08:49;;;;;;;;;;;6.00;59.00;;;;;;4987591;28;20005;-61
2021/12/11 09:11:28;;;;;;;;;;;6.10;59.10;;;;;;4983200;28;20358;-59
2021/12/11 09:13:57;;;;;;;;;;;6.10;59.20;;;;;;4985414;28;20279;-61
2021/12/11 09:16:30;;;;;;;;;;;6.20;58.70;;;;;;4986534;28;19948;-62
2021/12/11 09:19:14;;;;;;;;;;;6.20;58.50;;;;;;4985522;28;19910;-60
2021/12/11 09:21:42;;;;;;;;;;;6.10;59.00;;;;;;4986342;28;19913;-60
2021/12/11 09:24:11;;;;;;;;;;;6.00;59.70;;;;;;4984797;28;20021;-59
2021/12/11 09:26:49;;;;;;;;;;;6.00;59.70;;;;;;4985361;28;19910;-61
2021/12/11 09:29:21;;;;;;;;;;;6.10;59.50;;;;;;4979917;28;19968;-62
2021/12/11 09:31:57;;;;;;;;;;;6.10;59.60;;;;;;4980700;28;20000;-61
2021/12/11 09:34:24;;;;;;;;;;;6.10;59.70;;;;;;4971332;28;19906;-61
2021/12/11 09:36:57;;;;;;;;;;;6.10;59.60;;;;;;4989025;28;20365;-60
2021/12/11 09:39:22;;;;;;;;;;;6.10;59.50;;;;;;4984368;28;19913;-60
2021/12/11 09:41:48;;;;;;;;;;;6.10;59.70;;;;;;4984396;28;20350;-61
2021/12/11 09:44:19;;;;;;;;;;;6.10;59.90;;;;;;4965879;28;20278;-62
2021/12/11 09:46:48;;;;;;;;;;;6.20;60.00;;;;;;4985232;28;20346;-60
2021/12/11 09:49:15;;;;;;;;;;;6.20;60.30;;;;;;4964725;28;19964;-62
2021/12/11 09:51:45;;;;;;;;;;;6.20;60.10;;;;;;4986225;28;19912;-62
2021/12/11 09:54:13;;;;;;;;;;;6.20;61.20;;;;;;4987838;28;19906;-60
2021/12/11 09:56:42;;;;;;;;;;;6.10;60.90;;;;;;4987226;28;19909;-61
2021/12/11 09:59:10;;;;;;;;;;;6.20;60.90;;;;;;4968718;28;20269;-61
2021/12/11 10:01:39;;;;;;;;;;;6.10;60.80;;;;;;4963789;28;19906;-60
2021/12/11 10:04:17;;;;;;;;;;;6.10;60.90;;;;;;4986604;28;19906;-61
2021/12/11 10:09:42;;;;;;;;;;;6.20;60.30;;;;;;4970060;28;20033;-61
2021/12/11 10:12:13;;;;;;;;;;;6.30;60.20;;;;;;4982759;28;19917;-63
2021/12/11 10:14:40;;;;;;;;;;;6.40;59.80;;;;;;4986937;28;19905;-62
2021/12/11 10:17:09;;;;;;;;;;;6.40;60.10;;;;;;4986006;28;20317;-62
2021/12/11 10:19:35;;;;;;;;;;;6.50;59.90;;;;;;4985076;28;19996;-61
2021/12/11 10:22:07;;;;;;;;;;;6.50;60.20;;;;;;4984190;28;19917;-62
2021/12/11 10:24:33;;;;;;;;;;;6.50;59.70;;;;;;4984675;28;19906;-61
2021/12/11 10:26:59;;;;;;;;;;;6.60;59.70;;;;;;4982659;28;19913;-61
2021/12/11 10:29:25;;;;;;;;;;;6.60;59.50;;;;;;4983769;28;19913;-63
2021/12/11 10:31:57;;;;;;;;;;;6.60;59.40;;;;;;4979950;28;19913;-59
2021/12/11 10:34:24;;;;;;;;;;;6.60;59.30;;;;;;4985248;28;19906;-61
2021/12/11 10:36:54;;;;;;;;;;;6.50;59.10;;;;;;4985674;28;19917;-60
2021/12/11 10:39:20;;;;;;;;;;;6.50;59.60;;;;;;4983500;28;19906;-62
2021/12/11 10:41:46;;;;;;;;;;;6.60;59.20;;;;;;4946451;28;19965;-61
2021/12/11 10:44:24;;;;;;;;;;;6.50;59.30;;;;;;4985909;28;20034;-61
2021/12/11 10:46:53;;;;;;;;;;;6.50;59.30;;;;;;4982936;28;19913;-62
2021/12/11 10:49:19;;;;;;;;;;;6.60;59.20;;;;;;4987700;28;19909;-60
2021/12/11 10:51:48;;;;;;;;;;;6.60;59.40;;;;;;4984030;28;20416;-62
2021/12/11 10:54:15;;;;;;;;;;;6.60;59.30;;;;;;4985250;28;19944;-61
2021/12/11 10:56:41;;;;;;;;;;;6.60;59.60;;;;;;4986347;28;19906;-62
2021/12/11 10:59:09;;;;;;;;;;;6.60;59.80;;;;;;4988739;28;20008;-62
2021/12/11 11:01:41;;;;;;;;;;;6.60;60.00;;;;;;4984354;28;20342;-62
2021/12/11 11:04:09;;;;;;;;;;;6.60;59.90;;;;;;4985162;28;19953;-61
2021/12/11 11:06:35;;;;;;;;;;;6.60;60.00;;;;;;4985240;28;19910;-63
2021/12/11 11:09:00;;;;;;;;;;;6.70;60.10;;;;;;4983248;28;19906;-61
2021/12/11 11:11:27;;;;;;;;;;;6.70;60.10;;;;;;4984548;28;19917;-62
2021/12/11 11:13:53;;;;;;;;;;;6.80;60.20;;;;;;4979611;28;19910;-61
2021/12/11 11:16:19;;;;;;;;;;;6.80;60.00;;;;;;4962797;28;19922;-61
2021/12/11 11:18:46;;;;;;;;;;;6.70;59.80;;;;;;4980701;28;19906;-62
2021/12/11 11:21:14;;;;;;;;;;;6.70;59.80;;;;;;4983058;28;20223;-60
2021/12/11 11:23:40;;;;;;;;;;;6.70;60.10;;;;;;4983357;28;19910;-59
2021/12/11 11:26:10;;;;;;;;;;;6.80;60.20;;;;;;4984245;28;20752;-62
2021/12/11 11:28:36;;;;;;;;;;;6.90;59.80;;;;;;4985518;28;19906;-60
2021/12/11 11:31:05;;;;;;;;;;;6.80;60.30;;;;;;4983514;28;19961;-62
2021/12/11 11:33:31;;;;;;;;;;;6.80;60.20;;;;;;4983211;28;19937;-61
2021/12/11 11:35:58;;;;;;;;;;;6.70;60.20;;;;;;4984064;28;19910;-62
2021/12/11 11:38:26;;;;;;;;;;;6.70;60.40;;;;;;4984849;28;19944;-63
2021/12/11 11:40:55;;;;;;;;;;;6.60;60.50;;;;;;4950638;28;20278;-61
2021/12/11 11:43:21;;;;;;;;;;;6.70;60.60;;;;;;4985148;28;19912;-61
2021/12/11 11:45:52;;;;;;;;;;;6.70;60.40;;;;;;4986823;28;19989;-61
2021/12/11 11:48:19;;;;;;;;;;;6.70;60.60;;;;;;4987275;28;19928;-61
2021/12/11 11:50:46;;;;;;;;;;;6.60;60.40;;;;;;4985841;28;19913;-62
2021/12/11 11:53:12;;;;;;;;;;;6.60;60.90;;;;;;4984314;28;19906;-60
2021/12/11 11:55:42;;;;;;;;;;;6.60;61.10;;;;;;4988564;28;20372;-61
2021/12/11 11:58:07;;;;;;;;;;;6.60;61.30;;;;;;4967114;28;19913;-63
2021/12/11 12:00:41;;;;;;;;;;;6.60;61.20;;;;;;4987265;28;19917;-62
2021/12/11 12:03:11;;;;;;;;;;;6.50;61.20;;;;;;4987293;28;19929;-62
2021/12/11 12:05:37;;;;;;;;;;;6.60;61.20;;;;;;4981994;28;19945;-62
2021/12/11 12:08:03;;;;;;;;;;;6.50;61.10;;;;;;4987886;28;19953;-61
2021/12/11 12:10:29;;;;;;;;;;;6.50;60.80;;;;;;4988226;28;19913;-61
2021/12/11 12:12:55;;;;;;;;;;;6.60;60.80;;;;;;4987399;28;19917;-62
2021/12/11 12:15:23;;;;;;;;;;;6.60;60.60;;;;;;4986831;28;19993;-62
2021/12/11 12:17:49;;;;;;;;;;;6.70;60.30;;;;;;4985063;28;19995;-63
2021/12/11 12:20:16;;;;;;;;;;;6.70;60.20;;;;;;4985557;28;20361;-63
2021/12/11 12:22:42;;;;;;;;;;;6.70;60.40;;;;;;4986913;28;19989;-61
2021/12/11 12:25:08;;;;;;;;;;;6.80;60.70;;;;;;4990779;28;20008;-61
2021/12/11 12:27:35;;;;;;;;;;;6.80;59.90;;;;;;4986010;28;20530;-60
2021/12/11 12:30:03;;;;;;;;;;;6.70;60.40;;;;;;4986075;28;19941;-60
2021/12/11 12:32:31;;;;;;;;;;;6.80;60.30;;;;;;4976757;28;19930;-61
2021/12/11 12:34:58;;;;;;;;;;;6.60;60.20;;;;;;4976582;28;19913;-61
2021/12/11 12:37:24;;;;;;;;;;;6.50;60.90;;;;;;4976324;28;19913;-62
2021/12/11 12:39:52;;;;;;;;;;;6.50;60.70;;;;;;4976445;28;20332;-62
2021/12/11 12:42:27;;;;;;;;;;;6.50;61.00;;;;;;4976242;28;20009;-61
2021/12/11 12:44:56;;;;;;;;;;;6.50;61.40;;;;;;4959341;28;19946;-61
2021/12/11 12:47:25;;;;;;;;;;;6.40;61.10;;;;;;4976091;28;19906;-60
2021/12/11 12:49:52;;;;;;;;;;;6.40;61.40;;;;;;4976463;28;19921;-62
2021/12/11 12:52:39;;;;;;;;;;;6.40;61.60;;;;;;4976163;28;19906;-60
2021/12/11 12:55:07;;;;;;;;;;;6.30;62.00;;;;;;4976438;28;19906;-62
2021/12/11 12:57:36;;;;;;;;;;;6.40;61.80;;;;;;4977483;28;20263;-62
2021/12/11 13:00:17;;;;;;;;;;;6.50;61.20;;;;;;4977765;28;20277;-62
2021/12/11 13:02:43;;;;;;;;;;;6.40;61.90;;;;;;4976239;28;20391;-60
2021/12/11 13:05:17;;;;;;;;;;;6.40;61.80;;;;;;4978263;28;19906;-63
2021/12/11 13:07:44;;;;;;;;;;;6.40;62.00;;;;;;4975912;28;20004;-61
2021/12/11 13:10:13;;;;;;;;;;;6.30;62.50;;;;;;4975936;28;19918;-62
2021/12/11 13:12:41;;;;;;;;;;;6.30;62.50;;;;;;4975911;28;20425;-62
2021/12/11 13:15:10;;;;;;;;;;;6.30;62.50;;;;;;4974498;28;19913;-61
2021/12/11 13:17:38;;;;;;;;;;;6.30;61.90;;;;;;4976277;28;19953;-62
2021/12/11 13:20:10;;;;;;;;;;;6.30;62.20;;;;;;4976076;28;19945;-63
2021/12/11 13:22:38;;;;;;;;;;;6.30;62.00;;;;;;4974819;28;19913;-62
2021/12/11 13:25:06;;;;;;;;;;;6.20;62.30;;;;;;4975558;28;20337;-62
2021/12/11 13:27:32;;;;;;;;;;;6.20;62.40;;;;;;4975879;28;20052;-61
2021/12/11 13:30:00;;;;;;;;;;;6.20;62.40;;;;;;4975616;28;20371;-60
2021/12/11 13:32:27;;;;;;;;;;;6.10;62.80;;;;;;4975864;28;20000;-62
2021/12/11 13:34:56;;;;;;;;;;;6.10;63.20;;;;;;4983930;28;19976;-62
2021/12/11 13:37:23;;;;;;;;;;;6.10;63.10;;;;;;4986238;28;20311;-62
2021/12/11 13:39:49;;;;;;;;;;;6.20;62.90;;;;;;4979324;28;19906;-61
2021/12/11 13:42:19;;;;;;;;;;;6.20;62.80;;;;;;4976813;28;20343;-62
2021/12/11 13:44:46;;;;;;;;;;;6.20;62.90;;;;;;4975341;28;20056;-62
2021/12/11 13:47:16;;;;;;;;;;;6.10;63.20;;;;;;4975168;28;19906;-63
2021/12/11 13:49:43;;;;;;;;;;;6.20;62.70;;;;;;5015852;23;19975;-62
2021/12/11 13:52:09;;;;;;;;;;;6.30;62.10;;;;;;4994704;28;20326;-60
2021/12/11 13:54:37;;;;;;;;;;;6.40;61.70;;;;;;4994571;28;19905;-60
2021/12/11 13:57:05;;;;;;;;;;;6.40;62.10;;;;;;4994910;28;19906;-61
2021/12/11 13:59:31;;;;;;;;;;;6.40;62.40;;;;;;4994430;28;19906;-60
2021/12/11 14:01:57;;;;;;;;;;;6.40;62.30;;;;;;4994387;28;19988;-60
2021/12/11 14:04:26;;;;;;;;;;;6.40;62.30;;;;;;4994251;28;19961;-62
2021/12/11 14:07:03;;;;;;;;;;;6.30;62.40;;;;;;4994211;28;20047;-63
2021/12/11 14:09:34;;;;;;;;;;;6.40;62.20;;;;;;4994547;28;20273;-60
2021/12/11 14:12:00;;;;;;;;;;;6.30;62.00;;;;;;4994272;28;19906;-61
2021/12/11 14:14:26;;;;;;;;;;;6.40;61.90;;;;;;4994234;28;19921;-60
2021/12/11 14:16:54;;;;;;;;;;;6.30;62.00;;;;;;4994038;28;19948;-62
2021/12/11 14:19:20;;;;;;;;;;;6.30;62.10;;;;;;4994066;28;20413;-62
2021/12/11 14:21:46;;;;;;;;;;;6.30;62.40;;;;;;4994088;28;19905;-65
2021/12/11 14:24:12;;;;;;;;;;;6.20;63.00;;;;;;4994141;28;19906;-69
2021/12/11 14:26:39;;;;;;;;;;;6.00;63.40;;;;;;4976529;28;19905;-60
2021/12/11 14:29:07;;;;;;;;;;;6.00;63.30;;;;;;4976497;28;19910;-60
2021/12/11 14:31:34;;;;;;;;;;;6.10;63.10;;;;;;4993769;28;20008;-60
2021/12/11 14:34:03;;;;;;;;;;;6.10;63.20;;;;;;4993915;28;20299;-60
2021/12/11 14:36:31;;;;;;;;;;;6.10;62.80;;;;;;4976884;28;19906;-60
2021/12/11 14:39:04;;;;;;;;;;;6.10;63.20;;;;;;4994176;28;19917;-61
2021/12/11 14:41:33;;;;;;;;;;;6.00;63.50;;;;;;4993848;28;19906;-61
2021/12/11 14:44:01;;;;;;;;;;;5.90;63.70;;;;;;4993826;28;20000;-61
2021/12/11 14:46:30;;;;;;;;;;;6.00;63.30;;;;;;4994493;28;20282;-61
2021/12/11 14:48:57;;;;;;;;;;;6.00;63.30;;;;;;4994333;28;19917;-64
2021/12/11 14:51:24;;;;;;;;;;;6.00;63.30;;;;;;4993730;28;19921;-66
2021/12/11 14:53:50;;;;;;;;;;;5.90;63.50;;;;;;4976470;28;19973;-63
2021/12/11 14:56:18;;;;;;;;;;;5.90;63.50;;;;;;4994533;28;19953;-69
2021/12/11 14:58:45;;;;;;;;;;;5.90;63.70;;;;;;4994086;28;19909;-66
2021/12/11 15:01:13;;;;;;;;;;;5.80;63.90;;;;;;4994029;28;20341;-67